sensor_id;sensor_type;location;lat;lon;timestamp;P1;durP1;ratioP1;P2;durP2;ratioP2
14903;SDS011;7543;53.148;8.234;2024-03-02T00:00:56;10.77;;;6.03;;
14903;SDS011;7543;53.148;8.234;2024-03-02T00:03:25;10.53;;;6.07;;
14903;SDS011;7543;53.148;8.234;2024-03-02T00:05:53;12.00;;;5.90;;
14903;SDS011;7543;53.148;8.234;2024-03-02T00:08:23;10.57;;;5.83;;
14903;SDS011;7543;53.148;8.234;2024-03-02T00:10:55;10.47;;;5.87;;
14903;SDS011;7543;53.148;8.234;2024-03-02T00:13:25;9.13;;;5.30;;
14903;SDS011;7543;53.148;8.234;2024-03-02T00:15:54;9.00;;;5.23;;
14903;SDS011;7543;53.148;8.234;2024-03-02T00:18:26;10.47;;;6.00;;
14903;SDS011;7543;53.148;8.234;2024-03-02T00:20:54;9.07;;;5.47;;
14903;SDS011;7543;53.148;8.234;2024-03-02T00:23:24;9.80;;;5.50;;
14903;SDS011;7543;53.148;8.234;2024-03-02T00:25:54;10.07;;;5.60;;
14903;SDS011;7543;53.148;8.234;2024-03-02T00:28:23;8.57;;;5.03;;
14903;SDS011;7543;53.148;8.234;2024-03-02T00:30:56;10.23;;;6.03;;
14903;SDS011;7543;53.148;8.234;2024-03-02T00:33:30;9.53;;;5.90;;
14903;SDS011;7543;53.148;8.234;2024-03-02T00:35:58;10.80;;;5.47;;
14903;SDS011;7543;53.148;8.234;2024-03-02T00:38:27;9.10;;;5.37;;
14903;SDS011;7543;53.148;8.234;2024-03-02T00:40:58;10.53;;;4.93;;
14903;SDS011;7543;53.148;8.234;2024-03-02T00:46:15;9.43;;;5.20;;
14903;SDS011;7543;53.148;8.234;2024-03-02T00:48:51;14.17;;;6.23;;
14903;SDS011;7543;53.148;8.234;2024-03-02T00:51:21;10.43;;;5.50;;
14903;SDS011;7543;53.148;8.234;2024-03-02T00:53:50;8.03;;;5.03;;
14903;SDS011;7543;53.148;8.234;2024-03-02T00:56:22;9.33;;;5.17;;
14903;SDS011;7543;53.148;8.234;2024-03-02T00:58:51;10.83;;;6.03;;
14903;SDS011;7543;53.148;8.234;2024-03-02T01:01:19;10.33;;;5.67;;
14903;SDS011;7543;53.148;8.234;2024-03-02T01:03:48;10.13;;;5.43;;
14903;SDS011;7543;53.148;8.234;2024-03-02T01:06:17;9.73;;;5.33;;
14903;SDS011;7543;53.148;8.234;2024-03-02T01:08:47;9.57;;;5.47;;
14903;SDS011;7543;53.148;8.234;2024-03-02T01:11:17;10.17;;;4.87;;
14903;SDS011;7543;53.148;8.234;2024-03-02T01:13:48;8.70;;;4.40;;
14903;SDS011;7543;53.148;8.234;2024-03-02T01:16:17;8.67;;;5.23;;
14903;SDS011;7543;53.148;8.234;2024-03-02T01:18:45;9.97;;;5.23;;
14903;SDS011;7543;53.148;8.234;2024-03-02T01:21:15;9.13;;;4.50;;
14903;SDS011;7543;53.148;8.234;2024-03-02T01:23:43;10.50;;;5.23;;
14903;SDS011;7543;53.148;8.234;2024-03-02T01:26:11;8.07;;;4.67;;
14903;SDS011;7543;53.148;8.234;2024-03-02T01:28:40;9.50;;;4.63;;
14903;SDS011;7543;53.148;8.234;2024-03-02T01:31:08;7.17;;;4.93;;
14903;SDS011;7543;53.148;8.234;2024-03-02T01:33:36;8.20;;;4.87;;
14903;SDS011;7543;53.148;8.234;2024-03-02T01:36:05;8.53;;;4.87;;
14903;SDS011;7543;53.148;8.234;2024-03-02T01:38:36;6.63;;;4.23;;
14903;SDS011;7543;53.148;8.234;2024-03-02T01:41:04;9.40;;;4.63;;
14903;SDS011;7543;53.148;8.234;2024-03-02T01:43:32;8.67;;;4.87;;
14903;SDS011;7543;53.148;8.234;2024-03-02T01:46:01;8.60;;;4.90;;
14903;SDS011;7543;53.148;8.234;2024-03-02T01:48:29;8.33;;;4.73;;
14903;SDS011;7543;53.148;8.234;2024-03-02T01:50:58;7.50;;;4.83;;
14903;SDS011;7543;53.148;8.234;2024-03-02T01:53:26;7.03;;;4.67;;
14903;SDS011;7543;53.148;8.234;2024-03-02T01:55:56;8.67;;;4.57;;
14903;SDS011;7543;53.148;8.234;2024-03-02T01:58:24;9.70;;;4.80;;
14903;SDS011;7543;53.148;8.234;2024-03-02T02:00:53;6.47;;;4.27;;
14903;SDS011;7543;53.148;8.234;2024-03-02T02:03:21;7.87;;;4.50;;
14903;SDS011;7543;53.148;8.234;2024-03-02T02:05:49;8.70;;;5.13;;
14903;SDS011;7543;53.148;8.234;2024-03-02T02:08:18;7.07;;;3.97;;
14903;SDS011;7543;53.148;8.234;2024-03-02T02:10:46;7.17;;;4.33;;
14903;SDS011;7543;53.148;8.234;2024-03-02T02:13:16;9.23;;;4.40;;
14903;SDS011;7543;53.148;8.234;2024-03-02T02:15:44;7.47;;;4.40;;
14903;SDS011;7543;53.148;8.234;2024-03-02T02:18:13;7.83;;;4.60;;
14903;SDS011;7543;53.148;8.234;2024-03-02T02:20:42;7.97;;;4.27;;
14903;SDS011;7543;53.148;8.234;2024-03-02T02:23:12;10.60;;;4.20;;
14903;SDS011;7543;53.148;8.234;2024-03-02T02:25:40;8.00;;;4.40;;
14903;SDS011;7543;53.148;8.234;2024-03-02T02:28:08;7.00;;;4.70;;
14903;SDS011;7543;53.148;8.234;2024-03-02T02:30:37;8.40;;;4.70;;
14903;SDS011;7543;53.148;8.234;2024-03-02T02:33:05;8.03;;;4.80;;
14903;SDS011;7543;53.148;8.234;2024-03-02T02:35:33;7.47;;;4.30;;
14903;SDS011;7543;53.148;8.234;2024-03-02T02:38:01;7.13;;;4.13;;
14903;SDS011;7543;53.148;8.234;2024-03-02T02:40:31;7.70;;;4.60;;
14903;SDS011;7543;53.148;8.234;2024-03-02T02:43:00;7.93;;;4.70;;
14903;SDS011;7543;53.148;8.234;2024-03-02T02:45:28;9.70;;;4.63;;
14903;SDS011;7543;53.148;8.234;2024-03-02T02:47:57;6.83;;;4.67;;
14903;SDS011;7543;53.148;8.234;2024-03-02T02:50:25;7.60;;;4.20;;
14903;SDS011;7543;53.148;8.234;2024-03-02T02:52:53;8.77;;;4.47;;
14903;SDS011;7543;53.148;8.234;2024-03-02T02:55:22;8.33;;;3.90;;
14903;SDS011;7543;53.148;8.234;2024-03-02T02:57:51;8.57;;;4.67;;
14903;SDS011;7543;53.148;8.234;2024-03-02T03:00:20;6.63;;;4.23;;
14903;SDS011;7543;53.148;8.234;2024-03-02T03:02:49;7.97;;;4.77;;
14903;SDS011;7543;53.148;8.234;2024-03-02T03:05:18;8.50;;;5.13;;
14903;SDS011;7543;53.148;8.234;2024-03-02T03:07:46;8.27;;;4.97;;
14903;SDS011;7543;53.148;8.234;2024-03-02T03:10:16;8.23;;;4.40;;
14903;SDS011;7543;53.148;8.234;2024-03-02T03:12:45;7.67;;;4.40;;
14903;SDS011;7543;53.148;8.234;2024-03-02T03:15:14;7.37;;;4.30;;
14903;SDS011;7543;53.148;8.234;2024-03-02T03:17:44;7.50;;;4.60;;
14903;SDS011;7543;53.148;8.234;2024-03-02T03:20:14;8.37;;;4.93;;
14903;SDS011;7543;53.148;8.234;2024-03-02T03:22:42;8.23;;;4.43;;
14903;SDS011;7543;53.148;8.234;2024-03-02T03:25:10;6.87;;;4.60;;
14903;SDS011;7543;53.148;8.234;2024-03-02T03:27:39;6.80;;;4.03;;
14903;SDS011;7543;53.148;8.234;2024-03-02T03:30:08;6.97;;;4.17;;
14903;SDS011;7543;53.148;8.234;2024-03-02T03:32:39;6.57;;;4.47;;
14903;SDS011;7543;53.148;8.234;2024-03-02T03:35:07;6.97;;;4.67;;
14903;SDS011;7543;53.148;8.234;2024-03-02T03:37:36;7.17;;;4.80;;
14903;SDS011;7543;53.148;8.234;2024-03-02T03:40:05;10.63;;;4.73;;
14903;SDS011;7543;53.148;8.234;2024-03-02T03:42:36;8.43;;;4.83;;
14903;SDS011;7543;53.148;8.234;2024-03-02T03:45:05;7.10;;;4.10;;
14903;SDS011;7543;53.148;8.234;2024-03-02T03:47:34;7.63;;;4.40;;
14903;SDS011;7543;53.148;8.234;2024-03-02T03:50:05;7.03;;;4.20;;
14903;SDS011;7543;53.148;8.234;2024-03-02T03:52:34;7.17;;;4.70;;
14903;SDS011;7543;53.148;8.234;2024-03-02T03:55:02;8.53;;;4.67;;
14903;SDS011;7543;53.148;8.234;2024-03-02T03:57:31;10.17;;;4.80;;
14903;SDS011;7543;53.148;8.234;2024-03-02T04:00:00;9.60;;;4.63;;
14903;SDS011;7543;53.148;8.234;2024-03-02T04:02:38;7.13;;;4.47;;
14903;SDS011;7543;53.148;8.234;2024-03-02T04:05:08;7.73;;;4.80;;
14903;SDS011;7543;53.148;8.234;2024-03-02T04:07:37;8.00;;;5.03;;
14903;SDS011;7543;53.148;8.234;2024-03-02T04:10:09;6.73;;;4.40;;
14903;SDS011;7543;53.148;8.234;2024-03-02T04:12:38;9.67;;;5.33;;
14903;SDS011;7543;53.148;8.234;2024-03-02T04:15:07;7.30;;;4.40;;
14903;SDS011;7543;53.148;8.234;2024-03-02T04:17:36;9.63;;;5.50;;
14903;SDS011;7543;53.148;8.234;2024-03-02T04:20:04;7.43;;;4.73;;
14903;SDS011;7543;53.148;8.234;2024-03-02T04:22:35;8.40;;;5.10;;
14903;SDS011;7543;53.148;8.234;2024-03-02T04:25:04;8.93;;;4.77;;
14903;SDS011;7543;53.148;8.234;2024-03-02T04:27:34;7.63;;;4.77;;
14903;SDS011;7543;53.148;8.234;2024-03-02T04:30:02;7.43;;;5.17;;
14903;SDS011;7543;53.148;8.234;2024-03-02T04:32:32;8.50;;;5.10;;
14903;SDS011;7543;53.148;8.234;2024-03-02T04:35:00;8.33;;;5.13;;
14903;SDS011;7543;53.148;8.234;2024-03-02T04:37:29;7.30;;;5.30;;
14903;SDS011;7543;53.148;8.234;2024-03-02T04:39:59;7.83;;;5.03;;
14903;SDS011;7543;53.148;8.234;2024-03-02T04:42:27;6.97;;;4.73;;
14903;SDS011;7543;53.148;8.234;2024-03-02T04:44:55;9.47;;;5.43;;
14903;SDS011;7543;53.148;8.234;2024-03-02T04:47:24;9.93;;;5.57;;
14903;SDS011;7543;53.148;8.234;2024-03-02T04:49:52;9.60;;;5.27;;
14903;SDS011;7543;53.148;8.234;2024-03-02T04:52:20;8.20;;;5.00;;
14903;SDS011;7543;53.148;8.234;2024-03-02T04:54:48;8.17;;;5.27;;
14903;SDS011;7543;53.148;8.234;2024-03-02T04:57:38;7.83;;;4.83;;
14903;SDS011;7543;53.148;8.234;2024-03-02T05:00:06;9.50;;;5.53;;
14903;SDS011;7543;53.148;8.234;2024-03-02T05:02:35;7.30;;;4.30;;
14903;SDS011;7543;53.148;8.234;2024-03-02T05:05:04;8.30;;;5.30;;
14903;SDS011;7543;53.148;8.234;2024-03-02T05:07:32;8.70;;;5.03;;
14903;SDS011;7543;53.148;8.234;2024-03-02T05:10:00;11.50;;;5.67;;
14903;SDS011;7543;53.148;8.234;2024-03-02T05:12:29;6.00;;;4.20;;
14903;SDS011;7543;53.148;8.234;2024-03-02T05:15:23;8.27;;;4.73;;
14903;SDS011;7543;53.148;8.234;2024-03-02T05:17:51;8.90;;;5.00;;
14903;SDS011;7543;53.148;8.234;2024-03-02T05:20:20;9.53;;;5.07;;
14903;SDS011;7543;53.148;8.234;2024-03-02T05:22:48;8.00;;;4.80;;
14903;SDS011;7543;53.148;8.234;2024-03-02T05:25:16;8.73;;;5.60;;
14903;SDS011;7543;53.148;8.234;2024-03-02T05:27:45;9.33;;;4.93;;
14903;SDS011;7543;53.148;8.234;2024-03-02T05:30:14;8.83;;;4.80;;
14903;SDS011;7543;53.148;8.234;2024-03-02T05:32:43;7.17;;;4.47;;
14903;SDS011;7543;53.148;8.234;2024-03-02T05:35:12;9.10;;;5.17;;
14903;SDS011;7543;53.148;8.234;2024-03-02T05:37:40;6.43;;;4.40;;
14903;SDS011;7543;53.148;8.234;2024-03-02T05:40:09;7.60;;;5.17;;
14903;SDS011;7543;53.148;8.234;2024-03-02T05:45:19;8.67;;;4.47;;
14903;SDS011;7543;53.148;8.234;2024-03-02T05:47:48;8.67;;;5.07;;
14903;SDS011;7543;53.148;8.234;2024-03-02T05:50:17;7.00;;;4.90;;
14903;SDS011;7543;53.148;8.234;2024-03-02T05:52:46;8.67;;;4.60;;
14903;SDS011;7543;53.148;8.234;2024-03-02T05:55:15;7.57;;;4.77;;
14903;SDS011;7543;53.148;8.234;2024-03-02T05:57:43;7.70;;;4.83;;
14903;SDS011;7543;53.148;8.234;2024-03-02T06:00:25;7.40;;;4.90;;
14903;SDS011;7543;53.148;8.234;2024-03-02T06:02:55;9.50;;;4.97;;
14903;SDS011;7543;53.148;8.234;2024-03-02T06:05:24;7.57;;;4.70;;
14903;SDS011;7543;53.148;8.234;2024-03-02T06:07:52;7.93;;;4.87;;
14903;SDS011;7543;53.148;8.234;2024-03-02T06:10:21;9.20;;;4.80;;
14903;SDS011;7543;53.148;8.234;2024-03-02T06:12:49;7.80;;;4.77;;
14903;SDS011;7543;53.148;8.234;2024-03-02T06:15:17;8.10;;;5.00;;
14903;SDS011;7543;53.148;8.234;2024-03-02T06:17:46;10.10;;;4.83;;
14903;SDS011;7543;53.148;8.234;2024-03-02T06:20:16;9.50;;;4.40;;
14903;SDS011;7543;53.148;8.234;2024-03-02T06:22:44;8.47;;;5.00;;
14903;SDS011;7543;53.148;8.234;2024-03-02T06:25:12;8.20;;;4.43;;
14903;SDS011;7543;53.148;8.234;2024-03-02T06:27:41;9.10;;;4.70;;
14903;SDS011;7543;53.148;8.234;2024-03-02T06:30:09;7.83;;;5.17;;
14903;SDS011;7543;53.148;8.234;2024-03-02T06:32:39;8.40;;;5.20;;
14903;SDS011;7543;53.148;8.234;2024-03-02T06:35:07;7.90;;;4.90;;
14903;SDS011;7543;53.148;8.234;2024-03-02T06:37:39;9.00;;;5.37;;
14903;SDS011;7543;53.148;8.234;2024-03-02T06:40:07;9.67;;;4.90;;
14903;SDS011;7543;53.148;8.234;2024-03-02T06:42:36;7.43;;;4.60;;
14903;SDS011;7543;53.148;8.234;2024-03-02T06:45:05;9.07;;;5.70;;
14903;SDS011;7543;53.148;8.234;2024-03-02T06:47:34;9.83;;;5.40;;
14903;SDS011;7543;53.148;8.234;2024-03-02T06:50:02;9.13;;;5.17;;
14903;SDS011;7543;53.148;8.234;2024-03-02T06:52:31;8.70;;;5.43;;
14903;SDS011;7543;53.148;8.234;2024-03-02T06:55:00;6.87;;;4.27;;
14903;SDS011;7543;53.148;8.234;2024-03-02T06:57:29;8.83;;;5.10;;
14903;SDS011;7543;53.148;8.234;2024-03-02T06:59:57;8.40;;;5.10;;
14903;SDS011;7543;53.148;8.234;2024-03-02T07:02:26;9.50;;;5.37;;
14903;SDS011;7543;53.148;8.234;2024-03-02T07:04:54;8.27;;;5.40;;
14903;SDS011;7543;53.148;8.234;2024-03-02T07:07:22;8.37;;;4.93;;
14903;SDS011;7543;53.148;8.234;2024-03-02T07:09:51;8.40;;;5.10;;
14903;SDS011;7543;53.148;8.234;2024-03-02T07:12:20;8.67;;;4.37;;
14903;SDS011;7543;53.148;8.234;2024-03-02T07:14:49;7.93;;;4.77;;
14903;SDS011;7543;53.148;8.234;2024-03-02T07:17:46;9.70;;;5.20;;
14903;SDS011;7543;53.148;8.234;2024-03-02T07:20:14;8.13;;;4.90;;
14903;SDS011;7543;53.148;8.234;2024-03-02T07:22:42;10.43;;;5.90;;
14903;SDS011;7543;53.148;8.234;2024-03-02T07:25:11;11.07;;;5.50;;
14903;SDS011;7543;53.148;8.234;2024-03-02T07:27:41;12.50;;;5.57;;
14903;SDS011;7543;53.148;8.234;2024-03-02T07:30:13;10.23;;;5.40;;
14903;SDS011;7543;53.148;8.234;2024-03-02T07:32:42;8.03;;;5.10;;
14903;SDS011;7543;53.148;8.234;2024-03-02T07:35:12;8.47;;;5.47;;
14903;SDS011;7543;53.148;8.234;2024-03-02T07:37:41;11.60;;;6.13;;
14903;SDS011;7543;53.148;8.234;2024-03-02T07:40:12;9.37;;;5.83;;
14903;SDS011;7543;53.148;8.234;2024-03-02T07:42:42;14.57;;;5.30;;
14903;SDS011;7543;53.148;8.234;2024-03-02T07:45:11;11.17;;;6.27;;
14903;SDS011;7543;53.148;8.234;2024-03-02T07:47:39;10.50;;;6.67;;
14903;SDS011;7543;53.148;8.234;2024-03-02T07:50:08;12.07;;;6.10;;
14903;SDS011;7543;53.148;8.234;2024-03-02T07:52:37;11.57;;;5.83;;
14903;SDS011;7543;53.148;8.234;2024-03-02T07:55:05;9.30;;;5.80;;
14903;SDS011;7543;53.148;8.234;2024-03-02T07:57:34;12.93;;;6.47;;
14903;SDS011;7543;53.148;8.234;2024-03-02T08:00:04;10.07;;;6.27;;
14903;SDS011;7543;53.148;8.234;2024-03-02T08:02:39;12.33;;;6.83;;
14903;SDS011;7543;53.148;8.234;2024-03-02T08:05:09;10.33;;;6.43;;
14903;SDS011;7543;53.148;8.234;2024-03-02T08:07:37;11.80;;;6.33;;
14903;SDS011;7543;53.148;8.234;2024-03-02T08:10:06;11.13;;;6.10;;
14903;SDS011;7543;53.148;8.234;2024-03-02T08:12:35;13.50;;;6.73;;
14903;SDS011;7543;53.148;8.234;2024-03-02T08:15:05;11.27;;;6.17;;
14903;SDS011;7543;53.148;8.234;2024-03-02T08:17:34;10.13;;;6.00;;
14903;SDS011;7543;53.148;8.234;2024-03-02T08:20:02;10.57;;;6.50;;
14903;SDS011;7543;53.148;8.234;2024-03-02T08:22:31;12.10;;;6.60;;
14903;SDS011;7543;53.148;8.234;2024-03-02T08:25:00;12.63;;;7.17;;
14903;SDS011;7543;53.148;8.234;2024-03-02T08:27:29;10.93;;;6.13;;
14903;SDS011;7543;53.148;8.234;2024-03-02T08:29:58;9.93;;;6.13;;
14903;SDS011;7543;53.148;8.234;2024-03-02T08:32:28;10.43;;;6.03;;
14903;SDS011;7543;53.148;8.234;2024-03-02T08:34:56;11.17;;;6.53;;
14903;SDS011;7543;53.148;8.234;2024-03-02T08:37:25;12.47;;;6.53;;
14903;SDS011;7543;53.148;8.234;2024-03-02T08:39:53;10.13;;;6.23;;
14903;SDS011;7543;53.148;8.234;2024-03-02T08:42:22;12.63;;;7.03;;
14903;SDS011;7543;53.148;8.234;2024-03-02T08:44:50;11.80;;;6.20;;
14903;SDS011;7543;53.148;8.234;2024-03-02T08:47:18;11.27;;;5.80;;
14903;SDS011;7543;53.148;8.234;2024-03-02T08:49:48;12.63;;;6.77;;
14903;SDS011;7543;53.148;8.234;2024-03-02T08:52:16;9.50;;;5.97;;
14903;SDS011;7543;53.148;8.234;2024-03-02T08:54:45;10.40;;;6.10;;
14903;SDS011;7543;53.148;8.234;2024-03-02T08:57:13;11.37;;;5.83;;
14903;SDS011;7543;53.148;8.234;2024-03-02T08:59:41;9.93;;;5.80;;
14903;SDS011;7543;53.148;8.234;2024-03-02T09:02:10;10.27;;;6.17;;
14903;SDS011;7543;53.148;8.234;2024-03-02T09:04:39;10.57;;;5.67;;
14903;SDS011;7543;53.148;8.234;2024-03-02T09:07:08;8.60;;;5.70;;
14903;SDS011;7543;53.148;8.234;2024-03-02T09:09:36;11.27;;;5.60;;
14903;SDS011;7543;53.148;8.234;2024-03-02T09:12:06;9.20;;;5.53;;
14903;SDS011;7543;53.148;8.234;2024-03-02T09:14:35;8.83;;;5.33;;
14903;SDS011;7543;53.148;8.234;2024-03-02T09:17:03;9.83;;;5.83;;
14903;SDS011;7543;53.148;8.234;2024-03-02T09:19:32;10.30;;;6.50;;
14903;SDS011;7543;53.148;8.234;2024-03-02T09:22:00;7.57;;;4.90;;
14903;SDS011;7543;53.148;8.234;2024-03-02T09:24:31;11.37;;;5.30;;
14903;SDS011;7543;53.148;8.234;2024-03-02T09:26:59;9.07;;;5.00;;
14903;SDS011;7543;53.148;8.234;2024-03-02T09:29:28;7.10;;;5.27;;
14903;SDS011;7543;53.148;8.234;2024-03-02T09:31:57;7.43;;;4.50;;
14903;SDS011;7543;53.148;8.234;2024-03-02T09:34:25;8.57;;;5.07;;
14903;SDS011;7543;53.148;8.234;2024-03-02T09:36:53;7.10;;;4.27;;
14903;SDS011;7543;53.148;8.234;2024-03-02T09:39:21;8.03;;;4.67;;
14903;SDS011;7543;53.148;8.234;2024-03-02T09:41:51;9.27;;;4.80;;
14903;SDS011;7543;53.148;8.234;2024-03-02T09:44:19;6.53;;;4.43;;
14903;SDS011;7543;53.148;8.234;2024-03-02T09:46:49;8.13;;;5.00;;
14903;SDS011;7543;53.148;8.234;2024-03-02T09:49:17;7.67;;;4.07;;
14903;SDS011;7543;53.148;8.234;2024-03-02T09:51:46;5.87;;;3.97;;
14903;SDS011;7543;53.148;8.234;2024-03-02T09:54:15;7.10;;;4.50;;
14903;SDS011;7543;53.148;8.234;2024-03-02T09:56:44;8.97;;;4.60;;
14903;SDS011;7543;53.148;8.234;2024-03-02T09:59:13;7.17;;;4.57;;
14903;SDS011;7543;53.148;8.234;2024-03-02T10:01:55;5.90;;;4.13;;
14903;SDS011;7543;53.148;8.234;2024-03-02T10:04:23;6.33;;;4.43;;
14903;SDS011;7543;53.148;8.234;2024-03-02T10:09:40;6.53;;;4.03;;
14903;SDS011;7543;53.148;8.234;2024-03-02T10:12:09;6.13;;;3.47;;
14903;SDS011;7543;53.148;8.234;2024-03-02T10:14:40;6.90;;;3.63;;
14903;SDS011;7543;53.148;8.234;2024-03-02T10:17:09;5.30;;;3.50;;
14903;SDS011;7543;53.148;8.234;2024-03-02T10:19:38;5.30;;;3.20;;
14903;SDS011;7543;53.148;8.234;2024-03-02T10:22:08;4.30;;;2.90;;
14903;SDS011;7543;53.148;8.234;2024-03-02T10:24:37;4.80;;;3.13;;
14903;SDS011;7543;53.148;8.234;2024-03-02T10:27:06;5.30;;;3.20;;
14903;SDS011;7543;53.148;8.234;2024-03-02T10:29:38;4.17;;;3.33;;
14903;SDS011;7543;53.148;8.234;2024-03-02T10:32:08;6.03;;;2.80;;
14903;SDS011;7543;53.148;8.234;2024-03-02T10:34:39;4.17;;;2.87;;
14903;SDS011;7543;53.148;8.234;2024-03-02T10:37:08;4.23;;;2.90;;
14903;SDS011;7543;53.148;8.234;2024-03-02T10:39:36;6.27;;;2.80;;
14903;SDS011;7543;53.148;8.234;2024-03-02T10:42:06;5.87;;;3.17;;
14903;SDS011;7543;53.148;8.234;2024-03-02T10:44:35;5.00;;;2.67;;
14903;SDS011;7543;53.148;8.234;2024-03-02T10:47:05;5.23;;;2.97;;
14903;SDS011;7543;53.148;8.234;2024-03-02T10:49:33;6.27;;;2.70;;
14903;SDS011;7543;53.148;8.234;2024-03-02T10:52:01;4.10;;;2.53;;
14903;SDS011;7543;53.148;8.234;2024-03-02T10:54:30;4.20;;;2.80;;
14903;SDS011;7543;53.148;8.234;2024-03-02T10:57:05;3.13;;;2.40;;
14903;SDS011;7543;53.148;8.234;2024-03-02T10:59:36;3.73;;;2.50;;
14903;SDS011;7543;53.148;8.234;2024-03-02T11:02:07;6.50;;;2.43;;
14903;SDS011;7543;53.148;8.234;2024-03-02T11:04:39;3.53;;;2.53;;
14903;SDS011;7543;53.148;8.234;2024-03-02T11:07:09;4.23;;;2.37;;
14903;SDS011;7543;53.148;8.234;2024-03-02T11:09:38;3.30;;;2.30;;
14903;SDS011;7543;53.148;8.234;2024-03-02T11:12:09;3.87;;;2.20;;
14903;SDS011;7543;53.148;8.234;2024-03-02T11:14:41;5.20;;;2.57;;
14903;SDS011;7543;53.148;8.234;2024-03-02T11:17:13;5.27;;;2.60;;
14903;SDS011;7543;53.148;8.234;2024-03-02T11:19:43;3.57;;;2.53;;
14903;SDS011;7543;53.148;8.234;2024-03-02T11:22:12;3.43;;;2.37;;
14903;SDS011;7543;53.148;8.234;2024-03-02T11:24:47;4.63;;;2.53;;
14903;SDS011;7543;53.148;8.234;2024-03-02T11:27:20;3.40;;;2.40;;
14903;SDS011;7543;53.148;8.234;2024-03-02T11:33:23;5.40;;;2.37;;
14903;SDS011;7543;53.148;8.234;2024-03-02T11:35:54;3.77;;;2.50;;
14903;SDS011;7543;53.148;8.234;2024-03-02T11:38:27;5.23;;;2.70;;
14903;SDS011;7543;53.148;8.234;2024-03-02T11:40:56;3.97;;;2.53;;
14903;SDS011;7543;53.148;8.234;2024-03-02T11:43:25;4.00;;;2.77;;
14903;SDS011;7543;53.148;8.234;2024-03-02T11:45:59;4.03;;;2.73;;
14903;SDS011;7543;53.148;8.234;2024-03-02T11:48:31;4.27;;;2.80;;
14903;SDS011;7543;53.148;8.234;2024-03-02T11:51:00;5.47;;;3.20;;
14903;SDS011;7543;53.148;8.234;2024-03-02T11:53:28;5.37;;;3.57;;
14903;SDS011;7543;53.148;8.234;2024-03-02T11:55:58;4.40;;;3.13;;
14903;SDS011;7543;53.148;8.234;2024-03-02T11:58:28;4.57;;;3.27;;
14903;SDS011;7543;53.148;8.234;2024-03-02T12:00:56;5.50;;;3.47;;
14903;SDS011;7543;53.148;8.234;2024-03-02T12:03:26;6.73;;;3.60;;
14903;SDS011;7543;53.148;8.234;2024-03-02T12:05:55;6.43;;;3.63;;
14903;SDS011;7543;53.148;8.234;2024-03-02T12:08:23;5.20;;;3.53;;
14903;SDS011;7543;53.148;8.234;2024-03-02T12:10:55;7.03;;;3.37;;
14903;SDS011;7543;53.148;8.234;2024-03-02T12:13:27;7.20;;;3.60;;
14903;SDS011;7543;53.148;8.234;2024-03-02T12:15:55;4.83;;;3.23;;
14903;SDS011;7543;53.148;8.234;2024-03-02T12:18:25;5.83;;;3.20;;
14903;SDS011;7543;53.148;8.234;2024-03-02T12:20:53;4.87;;;3.00;;
14903;SDS011;7543;53.148;8.234;2024-03-02T12:23:24;5.40;;;3.37;;
14903;SDS011;7543;53.148;8.234;2024-03-02T12:25:52;6.80;;;3.33;;
14903;SDS011;7543;53.148;8.234;2024-03-02T12:28:21;5.77;;;3.67;;
14903;SDS011;7543;53.148;8.234;2024-03-02T12:30:49;5.97;;;3.17;;
14903;SDS011;7543;53.148;8.234;2024-03-02T12:33:18;5.47;;;3.20;;
14903;SDS011;7543;53.148;8.234;2024-03-02T12:35:49;5.23;;;3.67;;
14903;SDS011;7543;53.148;8.234;2024-03-02T12:38:18;4.97;;;3.20;;
14903;SDS011;7543;53.148;8.234;2024-03-02T12:40:47;6.13;;;3.47;;
14903;SDS011;7543;53.148;8.234;2024-03-02T12:43:16;5.10;;;2.97;;
14903;SDS011;7543;53.148;8.234;2024-03-02T12:45:44;5.63;;;3.20;;
14903;SDS011;7543;53.148;8.234;2024-03-02T12:48:13;5.07;;;3.17;;
14903;SDS011;7543;53.148;8.234;2024-03-02T12:50:41;5.70;;;3.27;;
14903;SDS011;7543;53.148;8.234;2024-03-02T12:53:15;4.40;;;3.13;;
14903;SDS011;7543;53.148;8.234;2024-03-02T12:55:44;4.00;;;2.40;;
14903;SDS011;7543;53.148;8.234;2024-03-02T12:58:19;4.23;;;2.90;;
14903;SDS011;7543;53.148;8.234;2024-03-02T13:00:47;6.63;;;2.90;;
14903;SDS011;7543;53.148;8.234;2024-03-02T13:03:17;4.90;;;2.87;;
14903;SDS011;7543;53.148;8.234;2024-03-02T13:05:50;5.23;;;2.80;;
14903;SDS011;7543;53.148;8.234;2024-03-02T13:08:21;3.93;;;2.77;;
14903;SDS011;7543;53.148;8.234;2024-03-02T13:10:49;5.10;;;3.03;;
14903;SDS011;7543;53.148;8.234;2024-03-02T13:13:18;5.03;;;3.40;;
14903;SDS011;7543;53.148;8.234;2024-03-02T13:15:46;4.63;;;2.73;;
14903;SDS011;7543;53.148;8.234;2024-03-02T13:18:14;3.37;;;2.40;;
14903;SDS011;7543;53.148;8.234;2024-03-02T13:20:46;2.93;;;2.13;;
14903;SDS011;7543;53.148;8.234;2024-03-02T13:23:14;4.57;;;2.67;;
14903;SDS011;7543;53.148;8.234;2024-03-02T13:25:44;3.93;;;2.50;;
14903;SDS011;7543;53.148;8.234;2024-03-02T13:28:14;4.27;;;2.60;;
14903;SDS011;7543;53.148;8.234;2024-03-02T13:30:42;3.03;;;2.27;;
14903;SDS011;7543;53.148;8.234;2024-03-02T13:33:10;3.87;;;2.53;;
14903;SDS011;7543;53.148;8.234;2024-03-02T13:35:39;5.10;;;2.90;;
14903;SDS011;7543;53.148;8.234;2024-03-02T13:38:07;4.97;;;2.97;;
14903;SDS011;7543;53.148;8.234;2024-03-02T13:40:36;5.50;;;3.30;;
14903;SDS011;7543;53.148;8.234;2024-03-02T13:43:06;4.20;;;3.13;;
14903;SDS011;7543;53.148;8.234;2024-03-02T13:45:34;5.00;;;3.00;;
14903;SDS011;7543;53.148;8.234;2024-03-02T13:48:03;5.50;;;3.53;;
14903;SDS011;7543;53.148;8.234;2024-03-02T13:50:32;4.87;;;3.03;;
14903;SDS011;7543;53.148;8.234;2024-03-02T13:53:00;4.97;;;3.00;;
14903;SDS011;7543;53.148;8.234;2024-03-02T13:55:29;6.60;;;3.00;;
14903;SDS011;7543;53.148;8.234;2024-03-02T13:57:58;4.13;;;2.80;;
14903;SDS011;7543;53.148;8.234;2024-03-02T14:00:28;4.50;;;2.93;;
14903;SDS011;7543;53.148;8.234;2024-03-02T14:02:57;6.33;;;2.87;;
14903;SDS011;7543;53.148;8.234;2024-03-02T14:05:25;4.37;;;3.00;;
14903;SDS011;7543;53.148;8.234;2024-03-02T14:07:54;3.27;;;2.33;;
14903;SDS011;7543;53.148;8.234;2024-03-02T14:10:22;4.30;;;2.93;;
14903;SDS011;7543;53.148;8.234;2024-03-02T14:12:50;4.87;;;3.07;;
14903;SDS011;7543;53.148;8.234;2024-03-02T14:15:19;5.13;;;3.20;;
14903;SDS011;7543;53.148;8.234;2024-03-02T14:17:48;5.17;;;2.67;;
14903;SDS011;7543;53.148;8.234;2024-03-02T14:20:17;4.17;;;2.63;;
14903;SDS011;7543;53.148;8.234;2024-03-02T14:22:48;3.93;;;3.07;;
14903;SDS011;7543;53.148;8.234;2024-03-02T14:25:17;4.20;;;2.87;;
14903;SDS011;7543;53.148;8.234;2024-03-02T14:27:45;4.67;;;3.10;;
14903;SDS011;7543;53.148;8.234;2024-03-02T14:30:14;3.73;;;2.57;;
14903;SDS011;7543;53.148;8.234;2024-03-02T14:32:43;4.20;;;3.20;;
14903;SDS011;7543;53.148;8.234;2024-03-02T14:35:12;5.30;;;3.23;;
14903;SDS011;7543;53.148;8.234;2024-03-02T14:37:41;5.30;;;3.40;;
14903;SDS011;7543;53.148;8.234;2024-03-02T14:40:10;5.47;;;3.10;;
14903;SDS011;7543;53.148;8.234;2024-03-02T14:42:40;5.93;;;3.63;;
14903;SDS011;7543;53.148;8.234;2024-03-02T14:45:09;5.73;;;3.80;;
14903;SDS011;7543;53.148;8.234;2024-03-02T14:47:37;5.80;;;3.67;;
14903;SDS011;7543;53.148;8.234;2024-03-02T14:50:05;5.93;;;3.50;;
14903;SDS011;7543;53.148;8.234;2024-03-02T14:52:37;6.30;;;3.77;;
14903;SDS011;7543;53.148;8.234;2024-03-02T14:55:05;5.10;;;3.20;;
14903;SDS011;7543;53.148;8.234;2024-03-02T14:57:34;6.30;;;3.50;;
14903;SDS011;7543;53.148;8.234;2024-03-02T15:00:03;6.67;;;3.80;;
14903;SDS011;7543;53.148;8.234;2024-03-02T15:02:34;7.07;;;3.63;;
14903;SDS011;7543;53.148;8.234;2024-03-02T15:05:02;5.70;;;3.70;;
14903;SDS011;7543;53.148;8.234;2024-03-02T15:07:32;5.93;;;3.67;;
14903;SDS011;7543;53.148;8.234;2024-03-02T15:10:02;6.30;;;3.70;;
14903;SDS011;7543;53.148;8.234;2024-03-02T15:12:31;5.43;;;3.50;;
14903;SDS011;7543;53.148;8.234;2024-03-02T15:15:00;5.80;;;3.63;;
14903;SDS011;7543;53.148;8.234;2024-03-02T15:17:28;5.40;;;3.30;;
14903;SDS011;7543;53.148;8.234;2024-03-02T15:19:56;5.63;;;3.67;;
14903;SDS011;7543;53.148;8.234;2024-03-02T15:22:25;5.40;;;3.40;;
14903;SDS011;7543;53.148;8.234;2024-03-02T15:24:53;5.87;;;3.50;;